Time;durP1;ratioP1;P1;durP2;ratioP2;P2;SDS_P1;SDS_P2;PMS_P1;PMS_P2;Temp;Humidity;BMP_temperature;BMP_pressure;BME280_temperature;BME280_humidity;BME280_pressure;Samples;Min_cycle;Max_cycle;Signal;HPM_P1;HPM_P2
2024/03/05 00:01:15;;;;;;;73.03;33.20;;;;;;;;;;5129504;28;20463;-72
2024/03/05 00:03:41;;;;;;;78.32;35.63;;;;;;;;;;5111009;28;20051;-73
2024/03/05 00:06:07;;;;;;;80.38;33.80;;;;;;;;;;5094100;28;20034;-72
2024/03/05 00:08:33;;;;;;;78.47;34.10;;;;;;;;;;5127705;28;20031;-72
2024/03/05 00:10:59;;;;;;;79.32;32.60;;;;;;;;;;5111156;28;20023;-72
2024/03/05 00:13:25;;;;;;;75.45;33.78;;;;;;;;;;5112199;28;20386;-72
2024/03/05 00:15:52;;;;;;;83.95;34.05;;;;;;;;;;5129462;28;20430;-72
2024/03/05 00:18:19;;;;;;;80.18;34.20;;;;;;;;;;5129166;28;20103;-72
2024/03/05 00:20:45;;;;;;;83.82;33.80;;;;;;;;;;5128971;28;20051;-73
2024/03/05 00:23:12;;;;;;;80.97;33.72;;;;;;;;;;5129288;28;20507;-73
2024/03/05 00:25:38;;;;;;;77.82;32.72;;;;;;;;;;5110751;28;20034;-72
2024/03/05 00:28:05;;;;;;;73.18;32.28;;;;;;;;;;5129071;28;20466;-73
2024/03/05 00:30:31;;;;;;;76.20;33.65;;;;;;;;;;5129398;28;20045;-72
2024/03/05 00:32:57;;;;;;;74.80;33.80;;;;;;;;;;5112985;27;20501;-73
2024/03/05 00:35:22;;;;;;;77.25;33.25;;;;;;;;;;5133369;27;20027;-73
2024/03/05 00:37:50;;;;;;;71.57;32.50;;;;;;;;;;5133295;27;20019;-73
2024/03/05 00:40:15;;;;;;;73.97;33.42;;;;;;;;;;5133459;27;20091;-73
2024/03/05 00:42:41;;;;;;;75.55;33.15;;;;;;;;;;5123149;27;20663;-72
2024/03/05 00:45:07;;;;;;;74.50;33.08;;;;;;;;;;5112646;28;20504;-72
2024/03/05 00:47:34;;;;;;;75.93;34.60;;;;;;;;;;5111683;28;20032;-73
2024/03/05 00:50:03;;;;;;;72.10;33.50;;;;;;;;;;5093325;28;20034;-73
2024/03/05 00:52:30;;;;;;;69.95;31.77;;;;;;;;;;5112112;28;20050;-73
2024/03/05 00:54:57;;;;;;;79.18;35.15;;;;;;;;;;5106272;27;20506;-72
2024/03/05 00:57:23;;;;;;;78.00;33.97;;;;;;;;;;5113888;27;20467;-73
2024/03/05 00:59:48;;;;;;;70.85;32.65;;;;;;;;;;5113523;27;20033;-73
2024/03/05 01:02:13;;;;;;;72.28;32.50;;;;;;;;;;5132786;27;20034;-71
2024/03/05 01:04:39;;;;;;;72.45;33.42;;;;;;;;;;5113439;27;20043;-73
2024/03/05 01:07:06;;;;;;;79.60;34.22;;;;;;;;;;5113940;27;20016;-73
2024/03/05 01:09:33;;;;;;;76.95;31.92;;;;;;;;;;5132222;27;20050;-73
2024/03/05 01:11:58;;;;;;;72.80;32.83;;;;;;;;;;5096790;27;20035;-73
2024/03/05 01:14:24;;;;;;;70.68;32.35;;;;;;;;;;5113961;27;20033;-73
2024/03/05 01:16:50;;;;;;;71.68;31.02;;;;;;;;;;5132357;27;20023;-73
2024/03/05 01:19:16;;;;;;;71.30;31.42;;;;;;;;;;5132496;27;20088;-72
2024/03/05 01:21:41;;;;;;;75.13;31.80;;;;;;;;;;5132115;27;20043;-73
2024/03/05 01:24:09;;;;;;;73.50;31.30;;;;;;;;;;5113906;27;20023;-73
2024/03/05 01:26:38;;;;;;;69.25;30.30;;;;;;;;;;5132396;27;20064;-73
2024/03/05 01:29:07;;;;;;;68.07;31.33;;;;;;;;;;5096655;27;20088;-73
2024/03/05 01:31:36;;;;;;;77.80;30.52;;;;;;;;;;5132459;27;20043;-73
2024/03/05 01:34:03;;;;;;;73.47;30.75;;;;;;;;;;5133966;27;20511;-73
2024/03/05 01:36:29;;;;;;;64.43;27.63;;;;;;;;;;5133396;27;20585;-71
2024/03/05 01:38:56;;;;;;;72.75;30.30;;;;;;;;;;5114274;27;20139;-73
2024/03/05 01:41:22;;;;;;;66.30;30.27;;;;;;;;;;5132417;27;20102;-74
2024/03/05 01:43:48;;;;;;;71.85;30.42;;;;;;;;;;5094022;28;20088;-72
2024/03/05 01:46:15;;;;;;;70.25;29.38;;;;;;;;;;5111904;28;20031;-74
2024/03/05 01:48:43;;;;;;;73.20;31.63;;;;;;;;;;5111293;28;20020;-73
2024/03/05 01:51:11;;;;;;;71.53;32.22;;;;;;;;;;5110897;28;20027;-73
2024/03/05 01:53:37;;;;;;;71.20;31.23;;;;;;;;;;5112888;27;20482;-74
2024/03/05 01:56:03;;;;;;;65.45;30.15;;;;;;;;;;5113075;27;20031;-71
2024/03/05 01:58:29;;;;;;;69.78;32.05;;;;;;;;;;5131759;27;20038;-73
2024/03/05 02:00:57;;;;;;;73.85;30.33;;;;;;;;;;5131412;27;20027;-73
2024/03/05 02:03:23;;;;;;;67.38;30.60;;;;;;;;;;5113049;27;20022;-73
2024/03/05 02:05:53;;;;;;;73.43;31.92;;;;;;;;;;5131822;27;20443;-73
2024/03/05 02:08:21;;;;;;;72.43;30.85;;;;;;;;;;5133033;27;20023;-72
2024/03/05 02:10:48;;;;;;;70.95;31.83;;;;;;;;;;5133368;27;20107;-72
2024/03/05 02:13:13;;;;;;;71.88;31.75;;;;;;;;;;5131922;27;20015;-74
2024/03/05 02:15:39;;;;;;;74.90;30.75;;;;;;;;;;5131213;27;20518;-74
2024/03/05 02:18:07;;;;;;;78.93;31.38;;;;;;;;;;5131181;27;20011;-74
2024/03/05 02:20:33;;;;;;;74.93;30.92;;;;;;;;;;5112385;27;20019;-73
2024/03/05 02:22:59;;;;;;;75.85;31.92;;;;;;;;;;5130842;27;20390;-74
2024/03/05 02:25:26;;;;;;;70.75;32.15;;;;;;;;;;5130880;27;20026;-73
2024/03/05 02:27:52;;;;;;;71.60;30.25;;;;;;;;;;5130927;27;20029;-73
2024/03/05 02:30:18;;;;;;;72.65;30.63;;;;;;;;;;5131070;27;20027;-73
2024/03/05 02:32:44;;;;;;;69.88;30.75;;;;;;;;;;5130945;27;20532;-74
2024/03/05 02:35:13;;;;;;;74.43;32.08;;;;;;;;;;5095397;27;20041;-72
2024/03/05 02:37:39;;;;;;;68.20;30.52;;;;;;;;;;5130882;27;20076;-72
2024/03/05 02:40:10;;;;;;;72.22;29.45;;;;;;;;;;5130027;27;20042;-72
2024/03/05 02:42:36;;;;;;;71.57;30.75;;;;;;;;;;5103136;28;20019;-73
2024/03/05 02:45:07;;;;;;;76.30;30.88;;;;;;;;;;5091607;28;20463;-72
2024/03/05 02:47:36;;;;;;;72.65;29.30;;;;;;;;;;5092008;28;20027;-73
2024/03/05 02:50:03;;;;;;;69.53;29.58;;;;;;;;;;5091100;28;20077;-75
2024/03/05 02:52:30;;;;;;;65.15;27.90;;;;;;;;;;5109790;28;20394;-73
2024/03/05 02:54:57;;;;;;;68.78;29.25;;;;;;;;;;5122540;27;20071;-73
2024/03/05 02:57:24;;;;;;;74.72;30.13;;;;;;;;;;5130928;27;20034;-73
2024/03/05 02:59:51;;;;;;;74.93;27.55;;;;;;;;;;5130525;27;20015;-73
2024/03/05 03:02:17;;;;;;;73.32;29.48;;;;;;;;;;5112079;27;20308;-73
2024/03/05 03:04:42;;;;;;;63.15;28.00;;;;;;;;;;5130059;27;20118;-73
2024/03/05 03:07:08;;;;;;;64.72;29.10;;;;;;;;;;5130327;27;20027;-73
2024/03/05 03:09:35;;;;;;;79.28;31.85;;;;;;;;;;5130615;27;20027;-72
2024/03/05 03:12:00;;;;;;;75.70;30.73;;;;;;;;;;5130323;27;20395;-74
2024/03/05 03:14:26;;;;;;;66.22;28.58;;;;;;;;;;5130266;27;20075;-72
2024/03/05 03:16:54;;;;;;;62.53;27.70;;;;;;;;;;5130218;27;20115;-72
2024/03/05 03:19:19;;;;;;;72.43;29.15;;;;;;;;;;5112373;27;20450;-73
2024/03/05 03:21:45;;;;;;;73.85;29.88;;;;;;;;;;5131245;27;20023;-73
2024/03/05 03:24:11;;;;;;;78.28;32.17;;;;;;;;;;5129565;27;20023;-72
2024/03/05 03:26:38;;;;;;;80.68;33.25;;;;;;;;;;5129858;27;20050;-73
2024/03/05 03:29:05;;;;;;;73.22;30.42;;;;;;;;;;5111063;28;20117;-73
2024/03/05 03:31:30;;;;;;;76.50;29.10;;;;;;;;;;5129842;27;20015;-74
2024/03/05 03:33:56;;;;;;;80.03;30.00;;;;;;;;;;5111428;28;20106;-74
2024/03/05 03:36:23;;;;;;;78.90;31.13;;;;;;;;;;5111333;28;20026;-73
2024/03/05 03:38:49;;;;;;;77.93;28.98;;;;;;;;;;5094532;27;20393;-73
2024/03/05 03:41:15;;;;;;;67.47;26.00;;;;;;;;;;5129741;27;20027;-72
2024/03/05 03:43:40;;;;;;;72.82;30.00;;;;;;;;;;5111451;28;20024;-72
2024/03/05 03:46:06;;;;;;;65.22;27.10;;;;;;;;;;5090683;28;20045;-72
2024/03/05 03:48:31;;;;;;;65.03;25.17;;;;;;;;;;5109382;28;20024;-74
2024/03/05 03:50:58;;;;;;;69.25;28.58;;;;;;;;;;5108898;28;20030;-73
2024/03/05 03:53:23;;;;;;;65.47;26.05;;;;;;;;;;5109630;28;20028;-73
2024/03/05 03:55:50;;;;;;;68.90;26.25;;;;;;;;;;5129661;28;20775;-73
2024/03/05 03:58:15;;;;;;;62.60;24.35;;;;;;;;;;5129566;28;20019;-72
2024/03/05 04:00:42;;;;;;;63.83;24.45;;;;;;;;;;5111152;28;20103;-73
2024/03/05 04:03:07;;;;;;;57.17;23.08;;;;;;;;;;5111154;28;20027;-73
2024/03/05 04:05:33;;;;;;;65.35;24.40;;;;;;;;;;5129812;28;20464;-73
2024/03/05 04:07:59;;;;;;;54.92;21.75;;;;;;;;;;5113475;27;20023;-73
2024/03/05 04:10:25;;;;;;;51.10;23.05;;;;;;;;;;5115416;27;20043;-73
2024/03/05 04:12:51;;;;;;;56.75;23.60;;;;;;;;;;5115517;27;20023;-73
2024/03/05 04:15:18;;;;;;;66.85;24.40;;;;;;;;;;5133935;27;20027;-73
2024/03/05 04:17:45;;;;;;;54.83;21.70;;;;;;;;;;5134050;27;20518;-73
2024/03/05 04:20:14;;;;;;;55.92;22.67;;;;;;;;;;5080783;27;20069;-72
2024/03/05 04:22:40;;;;;;;51.85;22.60;;;;;;;;;;5133441;27;20378;-72
2024/03/05 04:25:06;;;;;;;50.08;21.95;;;;;;;;;;5133305;27;20019;-72
2024/03/05 04:27:32;;;;;;;52.47;22.10;;;;;;;;;;5133349;27;20497;-72
2024/03/05 04:29:59;;;;;;;52.72;22.50;;;;;;;;;;5114474;27;20154;-71
2024/03/05 04:32:26;;;;;;;54.65;21.70;;;;;;;;;;5114526;27;20498;-73
2024/03/05 04:35:00;;;;;;;62.50;23.50;;;;;;;;;;5133032;27;20019;-71
2024/03/05 04:37:27;;;;;;;50.80;22.02;;;;;;;;;;5114728;27;20648;-72
2024/03/05 04:39:53;;;;;;;58.38;23.50;;;;;;;;;;5114224;27;20079;-73
2024/03/05 04:42:18;;;;;;;59.85;24.23;;;;;;;;;;5114394;27;20458;-71
2024/03/05 04:44:44;;;;;;;63.25;25.48;;;;;;;;;;5132811;27;20035;-73
2024/03/05 04:47:14;;;;;;;69.60;24.60;;;;;;;;;;5114103;27;20428;-74
2024/03/05 04:49:39;;;;;;;50.80;22.23;;;;;;;;;;5132930;27;20023;-73
2024/03/05 04:52:05;;;;;;;44.60;19.77;;;;;;;;;;5113858;27;20731;-73
2024/03/05 04:54:31;;;;;;;46.38;20.45;;;;;;;;;;5104712;28;20066;-72
2024/03/05 04:56:56;;;;;;;51.70;20.67;;;;;;;;;;5093548;28;20483;-73
2024/03/05 04:59:23;;;;;;;47.10;20.10;;;;;;;;;;5111693;28;20039;-73
2024/03/05 05:01:49;;;;;;;51.72;20.60;;;;;;;;;;5093941;28;20110;-72
2024/03/05 05:04:14;;;;;;;50.30;21.05;;;;;;;;;;5111757;28;20122;-73
2024/03/05 05:06:40;;;;;;;49.60;21.05;;;;;;;;;;5112002;28;20077;-72
2024/03/05 05:09:05;;;;;;;42.17;17.92;;;;;;;;;;5093433;28;20054;-71
2024/03/05 05:11:34;;;;;;;63.35;24.23;;;;;;;;;;5093311;28;20057;-73
2024/03/05 05:14:00;;;;;;;56.15;21.95;;;;;;;;;;5093278;28;20024;-72
2024/03/05 05:16:26;;;;;;;56.53;21.48;;;;;;;;;;5076174;28;20077;-74
2024/03/05 05:18:52;;;;;;;47.78;18.67;;;;;;;;;;5110313;28;20042;-72
2024/03/05 05:21:19;;;;;;;55.88;21.85;;;;;;;;;;5111335;28;20103;-73
2024/03/05 05:23:46;;;;;;;45.63;19.63;;;;;;;;;;5093670;28;20032;-72
2024/03/05 05:26:12;;;;;;;48.75;21.42;;;;;;;;;;5093151;28;20667;-71
2024/03/05 05:28:40;;;;;;;54.47;20.83;;;;;;;;;;5111726;28;20039;-74
2024/03/05 05:31:11;;;;;;;56.08;21.05;;;;;;;;;;5092629;28;20028;-74
2024/03/05 05:33:36;;;;;;;48.53;21.00;;;;;;;;;;5093229;28;20023;-73
2024/03/05 05:36:04;;;;;;;48.75;19.90;;;;;;;;;;5092920;28;20486;-72
2024/03/05 05:38:29;;;;;;;45.35;19.80;;;;;;;;;;5111134;28;20043;-73
2024/03/05 05:40:55;;;;;;;49.50;20.38;;;;;;;;;;5111283;28;20067;-71
2024/03/05 05:43:20;;;;;;;45.70;19.85;;;;;;;;;;5111463;28;20028;-73
2024/03/05 05:45:48;;;;;;;49.05;19.15;;;;;;;;;;5111516;28;20031;-73
2024/03/05 05:48:23;;;;;;;43.83;19.35;;;;;;;;;;5092841;28;20023;-74
2024/03/05 05:50:53;;;;;;;37.75;16.75;;;;;;;;;;5111375;28;20456;-73
2024/03/05 05:53:19;;;;;;;38.30;17.15;;;;;;;;;;5111173;28;20031;-73
2024/03/05 05:55:46;;;;;;;43.53;18.92;;;;;;;;;;5092643;28;20035;-74
2024/03/05 05:58:13;;;;;;;45.88;17.92;;;;;;;;;;5116710;28;20039;-73
2024/03/05 06:00:39;;;;;;;38.80;17.80;;;;;;;;;;5097994;28;20027;-73
2024/03/05 06:03:07;;;;;;;41.25;18.38;;;;;;;;;;5096768;28;20050;-73
2024/03/05 06:05:36;;;;;;;40.85;18.05;;;;;;;;;;5111259;28;20051;-75
2024/03/05 06:08:03;;;;;;;39.08;17.58;;;;;;;;;;5111034;28;20024;-73
2024/03/05 06:10:29;;;;;;;37.38;16.52;;;;;;;;;;5092832;28;20035;-73
2024/03/05 06:12:55;;;;;;;45.72;18.50;;;;;;;;;;5092452;28;20112;-73
2024/03/05 06:15:21;;;;;;;35.78;17.92;;;;;;;;;;5110856;28;20028;-73
2024/03/05 06:17:47;;;;;;;35.75;16.05;;;;;;;;;;5092462;28;20127;-73
2024/03/05 06:20:14;;;;;;;42.55;18.92;;;;;;;;;;5092381;28;20459;-73
2024/03/05 06:22:41;;;;;;;33.38;16.00;;;;;;;;;;5110537;28;20027;-75
2024/03/05 06:25:08;;;;;;;49.55;17.50;;;;;;;;;;5110430;28;20713;-73
2024/03/05 06:27:36;;;;;;;40.00;18.58;;;;;;;;;;5091893;28;20043;-73
2024/03/05 06:30:15;;;;;;;43.85;21.35;;;;;;;;;;5091689;28;20032;-73
2024/03/05 06:32:43;;;;;;;42.80;17.13;;;;;;;;;;5110514;28;20027;-73
2024/03/05 06:35:12;;;;;;;39.70;17.58;;;;;;;;;;5075208;28;20126;-73
2024/03/05 06:37:39;;;;;;;39.53;17.63;;;;;;;;;;5091484;28;20141;-73
2024/03/05 06:40:11;;;;;;;32.40;16.48;;;;;;;;;;5091651;28;20279;-72
2024/03/05 06:42:51;;;;;;;47.15;17.27;;;;;;;;;;5110248;28;20470;-72
2024/03/05 06:45:29;;;;;;;40.90;17.52;;;;;;;;;;5093066;28;20129;-73
2024/03/05 06:48:01;;;;;;;40.92;18.48;;;;;;;;;;5110683;28;20035;-73
2024/03/05 06:50:34;;;;;;;36.13;17.92;;;;;;;;;;5096185;28;20028;-73
2024/03/05 06:58:41;;;;;;;40.90;18.83;;;;;;;;;;5090353;28;20030;-74
2024/03/05 07:01:07;;;;;;;58.00;28.67;;;;;;;;;;5105793;28;20387;-74
2024/03/05 07:03:34;;;;;;;38.60;18.38;;;;;;;;;;5110008;28;20034;-74
2024/03/05 07:06:07;;;;;;;39.70;18.08;;;;;;;;;;5118447;27;20109;-72
2024/03/05 07:08:35;;;;;;;36.03;18.05;;;;;;;;;;5095519;28;20450;-74
2024/03/05 07:11:18;;;;;;;36.35;17.00;;;;;;;;;;5106039;28;20589;-73
2024/03/05 07:13:49;;;;;;;43.03;17.52;;;;;;;;;;5097407;28;20030;-73
2024/03/05 07:16:19;;;;;;;38.53;19.05;;;;;;;;;;5080090;28;20406;-76
2024/03/05 07:18:49;;;;;;;35.70;16.42;;;;;;;;;;5096814;28;20087;-75
2024/03/05 07:21:21;;;;;;;42.63;19.50;;;;;;;;;;5095279;28;20028;-74
2024/03/05 07:23:51;;;;;;;35.67;17.05;;;;;;;;;;5110176;28;20042;-73
2024/03/05 07:26:19;;;;;;;40.83;17.52;;;;;;;;;;5110098;28;20064;-76
2024/03/05 07:28:45;;;;;;;37.20;17.58;;;;;;;;;;5112465;28;20066;-73
2024/03/05 07:31:13;;;;;;;35.05;16.95;;;;;;;;;;5092920;28;20055;-73
2024/03/05 07:33:38;;;;;;;40.53;17.88;;;;;;;;;;5093165;28;20027;-74
2024/03/05 07:36:09;;;;;;;43.63;19.63;;;;;;;;;;5094735;28;20054;-75
2024/03/05 07:38:34;;;;;;;46.42;17.80;;;;;;;;;;5076832;28;20126;-75
2024/03/05 07:41:01;;;;;;;40.33;17.33;;;;;;;;;;5126015;27;20106;-73
2024/03/05 07:43:27;;;;;;;36.97;16.70;;;;;;;;;;5111980;27;20138;-75
2024/03/05 07:45:53;;;;;;;37.72;16.77;;;;;;;;;;5086122;28;20081;-74
2024/03/05 07:48:19;;;;;;;39.55;18.08;;;;;;;;;;5103680;28;20023;-73
2024/03/05 07:50:48;;;;;;;39.20;17.25;;;;;;;;;;5116063;28;20031;-74
2024/03/05 07:53:14;;;;;;;39.58;16.67;;;;;;;;;;5091010;28;20526;-74
2024/03/05 07:55:41;;;;;;;33.97;16.15;;;;;;;;;;5104166;28;20058;-70
2024/03/05 07:58:07;;;;;;;41.40;19.63;;;;;;;;;;5087198;28;20207;-74
2024/03/05 08:00:35;;;;;;;38.47;18.63;;;;;;;;;;5096782;28;20428;-72
2024/03/05 08:03:06;;;;;;;31.48;16.50;;;;;;;;;;5109123;28;20034;-73
2024/03/05 08:05:34;;;;;;;43.75;18.02;;;;;;;;;;5079861;28;20113;-74
2024/03/05 08:08:00;;;;;;;37.17;17.00;;;;;;;;;;5093648;28;20036;-75
2024/03/05 08:10:29;;;;;;;38.90;18.65;;;;;;;;;;5095852;28;20034;-74
2024/03/05 08:12:56;;;;;;;38.38;17.88;;;;;;;;;;5076236;28;20032;-74
2024/03/05 08:15:26;;;;;;;35.80;18.08;;;;;;;;;;5089502;28;20024;-77
2024/03/05 08:17:53;;;;;;;39.05;17.65;;;;;;;;;;5094193;28;20115;-73
2024/03/05 08:20:26;;;;;;;34.85;16.65;;;;;;;;;;5072702;28;20065;-72
2024/03/05 08:22:55;;;;;;;40.45;16.50;;;;;;;;;;5082785;28;20307;-74
2024/03/05 08:25:23;;;;;;;36.85;17.27;;;;;;;;;;5068930;28;20058;-73
2024/03/05 08:27:51;;;;;;;35.40;17.35;;;;;;;;;;5087209;28;20085;-75
2024/03/05 08:30:34;;;;;;;33.47;16.15;;;;;;;;;;5086156;28;20310;-71
2024/03/05 08:33:05;;;;;;;34.97;16.30;;;;;;;;;;5089378;28;20052;-73
2024/03/05 08:35:31;;;;;;;40.08;16.70;;;;;;;;;;5087358;28;20068;-76
2024/03/05 08:37:59;;;;;;;37.63;16.45;;;;;;;;;;5074402;28;20021;-72
2024/03/05 08:40:25;;;;;;;38.42;16.45;;;;;;;;;;5067760;28;20225;-74
2024/03/05 08:42:56;;;;;;;38.00;16.83;;;;;;;;;;5066741;28;20089;-74
2024/03/05 08:45:53;;;;;;;36.00;16.83;;;;;;;;;;5087914;28;20058;-74
2024/03/05 08:48:18;;;;;;;37.53;15.85;;;;;;;;;;5092183;28;20075;-76
2024/03/05 08:50:46;;;;;;;33.63;15.95;;;;;;;;;;5074710;28;20538;-74
2024/03/05 08:53:16;;;;;;;35.15;15.45;;;;;;;;;;5081902;28;20044;-75
2024/03/05 08:55:42;;;;;;;34.03;18.70;;;;;;;;;;5088014;28;20116;-72
2024/03/05 08:58:09;;;;;;;33.28;15.90;;;;;;;;;;5091624;28;20563;-73
2024/03/05 09:00:42;;;;;;;37.75;16.52;;;;;;;;;;5088340;28;20614;-69
2024/03/05 09:03:13;;;;;;;33.47;15.70;;;;;;;;;;5083954;28;20499;-72
2024/03/05 09:05:46;;;;;;;33.67;15.68;;;;;;;;;;5095060;28;20458;-73
2024/03/05 09:08:12;;;;;;;31.00;16.13;;;;;;;;;;5086743;28;20074;-73
2024/03/05 09:10:38;;;;;;;32.28;15.20;;;;;;;;;;5109586;27;20052;-71
2024/03/05 09:13:05;;;;;;;30.58;14.70;;;;;;;;;;5094934;28;20510;-73
2024/03/05 09:15:31;;;;;;;36.30;17.25;;;;;;;;;;5105017;28;20016;-73
2024/03/05 09:17:56;;;;;;;36.00;16.63;;;;;;;;;;5102440;28;20372;-71
2024/03/05 09:20:42;;;;;;;35.80;15.43;;;;;;;;;;5093446;28;20042;-73
2024/03/05 09:23:08;;;;;;;35.22;15.40;;;;;;;;;;5090751;28;20095;-75
2024/03/05 09:25:41;;;;;;;41.85;17.40;;;;;;;;;;5092306;28;20043;-72
2024/03/05 09:28:07;;;;;;;31.52;15.55;;;;;;;;;;5093514;28;20031;-72
2024/03/05 09:30:34;;;;;;;33.95;15.32;;;;;;;;;;5099638;28;20028;-76
2024/03/05 09:33:08;;;;;;;42.00;16.55;;;;;;;;;;5098469;28;20031;-72
2024/03/05 09:35:35;;;;;;;38.10;17.27;;;;;;;;;;5077317;28;20087;-73
2024/03/05 09:38:02;;;;;;;38.25;17.35;;;;;;;;;;5101834;28;20028;-73
2024/03/05 09:40:28;;;;;;;32.70;15.85;;;;;;;;;;5096039;28;20028;-75
2024/03/05 09:42:59;;;;;;;38.33;16.33;;;;;;;;;;5080381;28;20497;-75
2024/03/05 09:45:30;;;;;;;36.58;15.88;;;;;;;;;;5096621;28;20027;-71
2024/03/05 09:47:58;;;;;;;31.05;15.10;;;;;;;;;;5105282;28;20087;-73
2024/03/05 09:50:25;;;;;;;34.63;15.60;;;;;;;;;;5097424;28;20041;-72
2024/03/05 09:52:51;;;;;;;40.25;17.02;;;;;;;;;;5103618;28;20028;-74
2024/03/05 09:55:19;;;;;;;34.95;15.98;;;;;;;;;;5103371;28;20038;-75
2024/03/05 09:57:50;;;;;;;42.38;15.95;;;;;;;;;;5098117;28;20762;-75
2024/03/05 10:00:25;;;;;;;36.90;15.68;;;;;;;;;;5098799;28;20053;-76
2024/03/05 10:02:51;;;;;;;32.55;14.63;;;;;;;;;;5086970;28;20424;-74
2024/03/05 10:05:22;;;;;;;39.08;15.63;;;;;;;;;;5120051;27;20078;-74
2024/03/05 10:07:48;;;;;;;36.92;15.70;;;;;;;;;;5103400;27;21963;-70
2024/03/05 10:10:18;;;;;;;32.25;15.23;;;;;;;;;;5122369;27;20049;-75
2024/03/05 10:12:46;;;;;;;29.23;15.13;;;;;;;;;;5095243;27;20129;-76
2024/03/05 10:15:25;;;;;;;34.95;15.15;;;;;;;;;;5115985;27;20015;-74
2024/03/05 10:17:52;;;;;;;28.95;15.07;;;;;;;;;;5122004;27;20048;-72
2024/03/05 10:20:36;;;;;;;28.00;13.65;;;;;;;;;;5088364;27;20031;-76
2024/03/05 10:23:09;;;;;;;36.95;15.98;;;;;;;;;;5115502;27;20023;-77
2024/03/05 10:25:36;;;;;;;30.92;14.70;;;;;;;;;;5121665;27;20030;-74
2024/03/05 10:28:08;;;;;;;35.83;16.20;;;;;;;;;;5099168;28;20016;-71
2024/03/05 10:30:36;;;;;;;42.40;14.90;;;;;;;;;;5083367;28;20039;-72
2024/03/05 10:33:09;;;;;;;32.72;14.48;;;;;;;;;;5103064;27;20102;-74
2024/03/05 10:35:37;;;;;;;31.95;14.02;;;;;;;;;;5086405;27;20042;-73
2024/03/05 10:38:14;;;;;;;29.90;13.65;;;;;;;;;;5084893;27;20046;-71
2024/03/05 10:40:43;;;;;;;30.15;13.07;;;;;;;;;;5084624;27;20039;-78
2024/03/05 10:43:10;;;;;;;27.50;14.13;;;;;;;;;;5113784;27;20120;-76
2024/03/05 10:45:40;;;;;;;30.85;13.82;;;;;;;;;;5102653;27;20051;-73
2024/03/05 10:48:07;;;;;;;26.30;14.27;;;;;;;;;;5100987;28;20062;-74
2024/03/05 10:50:39;;;;;;;27.98;13.48;;;;;;;;;;5076942;27;20031;-72
2024/03/05 10:53:07;;;;;;;28.42;13.10;;;;;;;;;;5113667;27;20039;-74
2024/03/05 10:55:34;;;;;;;32.35;14.75;;;;;;;;;;5095560;28;20031;-73
2024/03/05 11:00:39;;;;;;;30.60;13.88;;;;;;;;;;5114213;27;20321;-75
2024/03/05 11:03:09;;;;;;;31.98;14.40;;;;;;;;;;5110352;27;20043;-77
2024/03/05 11:05:44;;;;;;;31.67;14.00;;;;;;;;;;5061672;28;20063;-74
2024/03/05 11:08:13;;;;;;;29.67;14.00;;;;;;;;;;5094984;27;20035;-69
2024/03/05 11:10:42;;;;;;;27.83;14.45;;;;;;;;;;5092323;27;20423;-72
2024/03/05 11:13:11;;;;;;;28.63;14.63;;;;;;;;;;5095664;27;20024;-72
2024/03/05 11:15:39;;;;;;;30.15;15.70;;;;;;;;;;5111142;27;20077;-71
2024/03/05 11:18:33;;;;;;;24.65;12.73;;;;;;;;;;5090418;28;20019;-72
2024/03/05 11:21:15;;;;;;;31.58;13.10;;;;;;;;;;5107517;28;20024;-71
2024/03/05 11:23:52;;;;;;;30.85;13.45;;;;;;;;;;5091199;28;20027;-70
2024/03/05 11:26:22;;;;;;;32.92;13.48;;;;;;;;;;5086666;28;20023;-71
2024/03/05 11:28:48;;;;;;;23.17;11.38;;;;;;;;;;5108572;27;20032;-74
2024/03/05 11:31:19;;;;;;;31.45;13.70;;;;;;;;;;5087185;28;20054;-71
2024/03/05 11:34:11;;;;;;;32.55;13.48;;;;;;;;;;5102180;27;20084;-74
2024/03/05 11:36:41;;;;;;;26.02;13.25;;;;;;;;;;5099586;27;20054;-73
2024/03/05 11:39:27;;;;;;;27.42;13.38;;;;;;;;;;5107814;28;20031;-72
2024/03/05 11:42:37;;;;;;;26.65;12.68;;;;;;;;;;5108093;27;20129;-74
2024/03/05 11:45:03;;;;;;;35.05;13.95;;;;;;;;;;5088584;28;20037;-74
2024/03/05 11:47:29;;;;;;;26.83;13.60;;;;;;;;;;5090912;28;20472;-72
2024/03/05 11:50:40;;;;;;;22.27;12.55;;;;;;;;;;5107289;28;20050;-70
2024/03/05 11:53:08;;;;;;;26.30;12.45;;;;;;;;;;5109544;28;20395;-70
2024/03/05 11:55:34;;;;;;;33.85;14.18;;;;;;;;;;5077351;28;20122;-72
2024/03/05 11:58:24;;;;;;;28.15;13.13;;;;;;;;;;5085203;28;20113;-69
2024/03/05 12:01:05;;;;;;;28.70;13.02;;;;;;;;;;5091674;28;20092;-72
2024/03/05 12:03:33;;;;;;;25.60;13.05;;;;;;;;;;5097345;28;20076;-73
2024/03/05 12:05:59;;;;;;;28.98;12.18;;;;;;;;;;5086752;28;20055;-72
2024/03/05 12:08:26;;;;;;;23.85;12.52;;;;;;;;;;5085153;28;20098;-73
2024/03/05 12:11:01;;;;;;;25.40;13.35;;;;;;;;;;5080384;28;20197;-71
2024/03/05 12:13:27;;;;;;;24.67;11.93;;;;;;;;;;5082696;28;20182;-70
2024/03/05 12:16:11;;;;;;;30.88;13.95;;;;;;;;;;5079948;28;20093;-70
2024/03/05 12:18:43;;;;;;;28.65;13.68;;;;;;;;;;5086063;28;20081;-72
2024/03/05 12:21:10;;;;;;;25.25;13.68;;;;;;;;;;5084423;28;20108;-72
2024/03/05 12:23:41;;;;;;;32.47;12.98;;;;;;;;;;5085767;28;20032;-71
2024/03/05 12:26:09;;;;;;;28.88;13.25;;;;;;;;;;5088966;28;20036;-73
2024/03/05 12:28:49;;;;;;;28.35;13.02;;;;;;;;;;5091982;28;20035;-72
2024/03/05 12:31:16;;;;;;;31.27;12.57;;;;;;;;;;5079476;28;20243;-75
2024/03/05 12:33:45;;;;;;;27.30;13.98;;;;;;;;;;5070962;28;20039;-69
2024/03/05 12:36:14;;;;;;;29.40;13.95;;;;;;;;;;5084121;28;20036;-71
2024/03/05 12:38:43;;;;;;;29.67;12.27;;;;;;;;;;5089275;28;21047;-72
2024/03/05 12:41:09;;;;;;;25.58;12.27;;;;;;;;;;5062877;28;20113;-71
2024/03/05 12:43:38;;;;;;;44.55;15.48;;;;;;;;;;5039351;28;20106;-72
2024/03/05 12:46:21;;;;;;;41.63;14.93;;;;;;;;;;5056828;28;20075;-73
2024/03/05 12:48:48;;;;;;;31.00;13.50;;;;;;;;;;5051497;28;20102;-71
2024/03/05 12:51:14;;;;;;;24.08;13.23;;;;;;;;;;5070071;28;20032;-70
2024/03/05 12:53:41;;;;;;;26.48;11.93;;;;;;;;;;5038472;28;20040;-71
2024/03/05 12:56:17;;;;;;;28.13;12.77;;;;;;;;;;5046458;28;20456;-73
2024/03/05 12:58:44;;;;;;;27.23;13.15;;;;;;;;;;5053355;28;20116;-71
2024/03/05 13:01:15;;;;;;;27.58;13.13;;;;;;;;;;5036545;28;20104;-72
2024/03/05 13:03:42;;;;;;;;;;;;;;;;;;5032943;28;20028;-70
2024/03/05 13:06:14;;;;;;;30.00;12.93;;;;;;;;;;5059952;28;20530;-70
2024/03/05 13:08:47;;;;;;;29.85;14.80;;;;;;;;;;5067262;28;20474;-72
2024/03/05 13:11:13;;;;;;;27.33;13.30;;;;;;;;;;5070095;28;20029;-70
2024/03/05 13:13:42;;;;;;;26.25;12.27;;;;;;;;;;5069631;28;20542;-72
2024/03/05 13:16:10;;;;;;;33.22;12.93;;;;;;;;;;5068359;28;20044;-72
2024/03/05 13:18:36;;;;;;;29.10;13.00;;;;;;;;;;5053569;28;20032;-71
2024/03/05 13:21:10;;;;;;;27.13;14.23;;;;;;;;;;5069591;28;20544;-70
2024/03/05 13:23:36;;;;;;;35.15;14.40;;;;;;;;;;5053568;28;20064;-71
2024/03/05 13:26:02;;;;;;;32.17;13.55;;;;;;;;;;5050922;28;20067;-74
2024/03/05 13:28:28;;;;;;;24.02;12.60;;;;;;;;;;5066350;28;20511;-73
2024/03/05 13:30:54;;;;;;;33.67;15.25;;;;;;;;;;5063414;28;20042;-71
2024/03/05 13:33:42;;;;;;;28.60;13.27;;;;;;;;;;5086686;28;20066;-70
2024/03/05 13:36:10;;;;;;;29.50;12.57;;;;;;;;;;5089388;28;20574;-70
2024/03/05 13:38:38;;;;;;;31.55;13.60;;;;;;;;;;5088886;28;20012;-70
2024/03/05 13:41:07;;;;;;;28.77;13.85;;;;;;;;;;5087849;28;20036;-70
2024/03/05 13:43:34;;;;;;;27.20;13.75;;;;;;;;;;5091446;28;20456;-72
2024/03/05 13:46:00;;;;;;;25.35;13.43;;;;;;;;;;5088738;28;20016;-71
2024/03/05 13:48:27;;;;;;;26.90;13.75;;;;;;;;;;5088886;28;20395;-70
2024/03/05 13:50:54;;;;;;;25.15;12.70;;;;;;;;;;5087962;28;20043;-72
2024/03/05 13:53:21;;;;;;;24.65;12.50;;;;;;;;;;5088051;28;20504;-70
2024/03/05 13:55:56;;;;;;;25.83;12.38;;;;;;;;;;5092567;28;20032;-71
2024/03/05 13:58:22;;;;;;;28.77;13.15;;;;;;;;;;5088388;28;20612;-71
2024/03/05 14:00:49;;;;;;;26.70;12.25;;;;;;;;;;5093658;28;20024;-71
2024/03/05 14:03:15;;;;;;;31.05;14.05;;;;;;;;;;5086784;28;20039;-71
2024/03/05 14:05:44;;;;;;;30.80;13.85;;;;;;;;;;5103704;27;20043;-72
2024/03/05 14:08:12;;;;;;;26.73;13.10;;;;;;;;;;5079929;27;20387;-72
2024/03/05 14:10:41;;;;;;;33.90;15.05;;;;;;;;;;5097782;28;20050;-73
2024/03/05 14:13:20;;;;;;;42.00;17.73;;;;;;;;;;5097921;27;20046;-72
2024/03/05 14:15:49;;;;;;;30.48;14.63;;;;;;;;;;5109149;28;20032;-70
2024/03/05 14:18:21;;;;;;;27.20;13.82;;;;;;;;;;5121326;27;20095;-72
2024/03/05 14:20:51;;;;;;;29.98;14.55;;;;;;;;;;5122665;27;20039;-72
2024/03/05 14:23:19;;;;;;;34.60;14.73;;;;;;;;;;5099584;28;20035;-72
2024/03/05 14:25:46;;;;;;;32.72;14.38;;;;;;;;;;5086838;28;20019;-71
2024/03/05 14:28:14;;;;;;;26.17;14.07;;;;;;;;;;5104710;28;20034;-70
2024/03/05 14:30:44;;;;;;;29.10;13.80;;;;;;;;;;5120253;27;20069;-71
2024/03/05 14:33:10;;;;;;;30.52;13.82;;;;;;;;;;5095321;27;20047;-72
2024/03/05 14:35:36;;;;;;;31.45;16.55;;;;;;;;;;5109171;28;20091;-71